createdAt,value
2022-08-17T00:00:34.420Z,100368.72
2022-08-17T00:03:10.540Z,100365.69
2022-08-17T00:05:42.389Z,100375.19
2022-08-17T00:08:11.304Z,100380.25
2022-08-17T00:10:39.923Z,100374.13
2022-08-17T00:13:09.734Z,100366.38
2022-08-17T00:15:39.898Z,100369.50
2022-08-17T00:19:02.437Z,100372.06
2022-08-17T00:20:57.376Z,100372.69
2022-08-17T00:23:26.058Z,100374.31
2022-08-17T00:25:54.972Z,100371.56
2022-08-17T00:28:23.328Z,100370.69
2022-08-17T00:30:54.038Z,100369.69
2022-08-17T00:33:25.408Z,100365.19
2022-08-17T00:35:54.115Z,100369.31
2022-08-17T00:38:23.273Z,100380.59
2022-08-17T00:40:55.699Z,100383.88
2022-08-17T00:43:30.541Z,100371.78
2022-08-17T00:46:01.661Z,100381.22
2022-08-17T00:48:30.901Z,100376.75
2022-08-17T00:51:08.350Z,100362.56
2022-08-17T00:53:41.879Z,100374.63
2022-08-17T00:56:13.245Z,100375.41
2022-08-17T00:58:42.131Z,100375.25
2022-08-17T01:01:21.336Z,100376.75
2022-08-17T01:03:51.783Z,100371.47
2022-08-17T01:06:20.490Z,100374.53
2022-08-17T01:08:57.794Z,100374.09
2022-08-17T01:11:26.358Z,100366.84
2022-08-17T01:13:54.825Z,100361.66
2022-08-17T01:16:27.398Z,100365.19
2022-08-17T01:18:58.070Z,100363.56
2022-08-17T01:21:33.017Z,100368.81
2022-08-17T01:24:02.860Z,100360.16
2022-08-17T01:26:34.203Z,100373.25
2022-08-17T01:29:04.087Z,100377.56
2022-08-17T01:31:41.516Z,100367.81
2022-08-17T01:34:11.544Z,100384.13
2022-08-17T01:36:42.051Z,100382.31
2022-08-17T01:39:19.461Z,100383.06
2022-08-17T01:41:49.363Z,100384.59
2022-08-17T01:44:17.922Z,100385.06
2022-08-17T01:46:45.837Z,100385.63
2022-08-17T01:49:13.823Z,100381.81
2022-08-17T01:51:42.808Z,100389.13
2022-08-17T01:54:16.112Z,100381.97
2022-08-17T01:56:47.520Z,100386.94
2022-08-17T01:59:16.661Z,100388.56
2022-08-17T02:01:45.293Z,100384.31
2022-08-17T02:04:13.610Z,100385.34
2022-08-17T02:06:47.072Z,100387.25
2022-08-17T02:09:26.289Z,100376.75
2022-08-17T02:11:59.983Z,100381.44
2022-08-17T02:14:57.084Z,100375.50
2022-08-17T02:17:25.111Z,100374.72
2022-08-17T02:19:53.012Z,100375.03
2022-08-17T02:22:26.075Z,100371.63
2022-08-17T02:25:01.252Z,100368.94
2022-08-17T02:27:30.675Z,100365.34
2022-08-17T02:29:58.740Z,100370.25
2022-08-17T02:32:28.747Z,100367.53
2022-08-17T02:35:01.076Z,100368.47
2022-08-17T02:37:30.945Z,100371.03
2022-08-17T02:40:00.756Z,100349.06
2022-08-17T02:42:31.514Z,100365.78
2022-08-17T02:45:01.687Z,100365.78
2022-08-17T02:47:30.404Z,100362.16
2022-08-17T02:49:58.658Z,100364.84
2022-08-17T02:52:42.864Z,100342.94
2022-08-17T02:55:23.405Z,100371.44
2022-08-17T02:57:54.623Z,100371.16
2022-08-17T03:00:25.684Z,100369.38
2022-08-17T03:02:58.299Z,100379.56
2022-08-17T03:05:30.667Z,100375.13
2022-08-17T03:07:58.987Z,100371.59
2022-08-17T03:10:29.681Z,100371.91
2022-08-17T03:12:57.882Z,100367.59
2022-08-17T03:15:28.619Z,100376.91
2022-08-17T03:18:03.891Z,100379.22
2022-08-17T03:20:33.754Z,100348.38
2022-08-17T03:23:03.119Z,100382.38
2022-08-17T03:25:36.194Z,100389.03
2022-08-17T03:28:05.692Z,100373.19
2022-08-17T03:30:37.587Z,100388.59
2022-08-17T03:33:09.906Z,100390.16
2022-08-17T03:35:44.130Z,100380.56
2022-08-17T03:38:15.199Z,100374.91
2022-08-17T03:40:57.602Z,100379.28
2022-08-17T03:43:30.267Z,100381.69
2022-08-17T03:46:33.842Z,100379.84
2022-08-17T03:49:25.396Z,100369.16
2022-08-17T03:52:17.770Z,100371.81
2022-08-17T03:55:04.054Z,100381.25
2022-08-17T03:57:33.766Z,100378.69
2022-08-17T04:00:01.993Z,100381.09
2022-08-17T04:02:59.883Z,100377.56
2022-08-17T04:05:30.627Z,100372.13
2022-08-17T04:08:06.956Z,100381.03
2022-08-17T04:10:41.398Z,100357.34
2022-08-17T04:13:14.959Z,100384.28
2022-08-17T04:16:00.505Z,100378.28
2022-08-17T04:18:29.148Z,100380.81
2022-08-17T04:20:57.366Z,100382.50
2022-08-17T04:23:39.751Z,100378.19
2022-08-17T04:26:07.688Z,100386.91
2022-08-17T04:28:37.284Z,100382.56
2022-08-17T04:31:05.834Z,100385.31
2022-08-17T04:33:34.868Z,100387.03
2022-08-17T04:36:05.379Z,100386.16
2022-08-17T04:38:35.742Z,100392.16
2022-08-17T04:41:19.711Z,100392.00
2022-08-17T04:43:54.891Z,100389.47
2022-08-17T04:46:26.183Z,100392.81
2022-08-17T04:49:00.699Z,100393.75
2022-08-17T04:51:32.113Z,100397.28
2022-08-17T04:54:02.753Z,100399.63
2022-08-17T04:56:33.782Z,100402.19
2022-08-17T04:59:14.043Z,100404.00
2022-08-17T05:01:43.947Z,100408.13
2022-08-17T05:04:33.244Z,100418.69
2022-08-17T05:07:03.271Z,100409.22
2022-08-17T05:09:33.590Z,100417.06
2022-08-17T05:12:02.267Z,100419.84
2022-08-17T05:14:39.844Z,100420.16
2022-08-17T05:17:11.015Z,100418.81
2022-08-17T05:19:39.374Z,100421.66
2022-08-17T05:22:07.540Z,100420.03
2022-08-17T05:24:43.722Z,100430.88
2022-08-17T05:27:22.780Z,100436.50
2022-08-17T05:29:54.382Z,100435.63
2022-08-17T05:32:39.321Z,100433.66
2022-08-17T05:35:08.942Z,100419.63
2022-08-17T05:37:36.819Z,100432.19
2022-08-17T05:40:11.660Z,100423.97
2022-08-17T05:42:40.127Z,100434.13
2022-08-17T05:45:11.070Z,100431.91
2022-08-17T05:47:40.654Z,100422.59
2022-08-17T05:50:27.173Z,100432.28
2022-08-17T05:53:09.156Z,100425.34
2022-08-17T05:55:50.267Z,100427.19
2022-08-17T05:58:26.521Z,100425.28
2022-08-17T06:01:15.590Z,100427.44
2022-08-17T06:04:16.575Z,100427.41
2022-08-17T06:06:55.233Z,100434.81
2022-08-17T06:09:36.734Z,100435.13
2022-08-17T06:12:37.488Z,100432.56
2022-08-17T06:15:26.686Z,100420.09
2022-08-17T06:18:00.088Z,100437.81
2022-08-17T06:20:45.549Z,100428.94
2022-08-17T06:23:28.521Z,100433.19
2022-08-17T06:26:05.072Z,100426.75
2022-08-17T06:28:38.995Z,100430.47
2022-08-17T06:31:12.416Z,100437.78
2022-08-17T06:33:46.321Z,100431.94
2022-08-17T06:36:29.356Z,100434.72
2022-08-17T06:39:21.143Z,100435.56
2022-08-17T06:42:02.266Z,100426.84
2022-08-17T06:44:51.571Z,100430.19
2022-08-17T06:47:28.831Z,100424.53
2022-08-17T06:50:20.331Z,100427.56
2022-08-17T06:53:00.671Z,100432.22
2022-08-17T06:55:47.812Z,100432.09
2022-08-17T06:58:21.165Z,100429.56
2022-08-17T07:00:58.119Z,100429.53
2022-08-17T07:03:33.331Z,100435.81
2022-08-17T07:06:15.090Z,100425.63
2022-08-17T07:09:05.513Z,100425.09
2022-08-17T07:11:50.441Z,100423.47
2022-08-17T07:14:32.379Z,100430.47
2022-08-17T07:17:04.418Z,100428.56
2022-08-17T07:19:45.647Z,100431.00
2022-08-17T07:22:55.231Z,100426.63
2022-08-17T07:25:36.769Z,100436.16
2022-08-17T07:28:07.836Z,100435.44
2022-08-17T07:30:45.794Z,100432.97
2022-08-17T07:33:20.191Z,100437.41
2022-08-17T07:35:52.083Z,100440.09
2022-08-17T07:38:24.226Z,100432.28
2022-08-17T07:41:04.476Z,100447.00
2022-08-17T07:43:35.691Z,100445.34
2022-08-17T07:46:34.144Z,100441.19
2022-08-17T07:49:20.897Z,100446.22
2022-08-17T07:51:59.990Z,100440.19
2022-08-17T07:54:44.043Z,100444.94
2022-08-17T07:57:34.239Z,100456.31
2022-08-17T08:00:31.658Z,100448.28
2022-08-17T08:03:26.194Z,100447.47
2022-08-17T08:06:00.262Z,100437.59
2022-08-17T08:08:44.507Z,100437.91
2022-08-17T08:11:29.227Z,100446.88
2022-08-17T08:14:28.533Z,100442.81
2022-08-17T08:16:59.946Z,100443.97
2022-08-17T08:19:32.380Z,100413.28
2022-08-17T08:22:10.662Z,100445.53
2022-08-17T08:25:05.345Z,100445.13
2022-08-17T08:30:38.078Z,100457.91
2022-08-17T08:33:25.913Z,100459.06
2022-08-17T08:36:05.124Z,100448.41
2022-08-17T08:38:50.669Z,100454.34
2022-08-17T08:41:33.270Z,100462.13
2022-08-17T08:44:15.481Z,100461.31
2022-08-17T08:46:57.694Z,100450.09
2022-08-17T08:50:04.340Z,100450.31
2022-08-17T08:53:01.246Z,100453.88
2022-08-17T08:55:55.235Z,100448.00
2022-08-17T09:01:30.087Z,100455.31
2022-08-17T09:04:29.772Z,100467.34
2022-08-17T09:07:09.919Z,100457.78
2022-08-17T09:10:08.710Z,100451.69
2022-08-17T09:12:52.068Z,100462.22
2022-08-17T09:15:27.559Z,100467.44
2022-08-17T09:18:59.260Z,100463.47
2022-08-17T09:21:00.853Z,100472.38
2022-08-17T09:23:35.306Z,100475.25
2022-08-17T09:26:12.888Z,100472.25
2022-08-17T09:28:59.272Z,100471.59
2022-08-17T09:31:50.115Z,100465.53
2022-08-17T09:34:33.446Z,100468.00
2022-08-17T09:37:15.160Z,100466.06
2022-08-17T09:39:48.993Z,100463.53
2022-08-17T09:42:30.404Z,100451.56
2022-08-17T09:45:08.103Z,100459.34
2022-08-17T09:47:46.707Z,100462.72
2022-08-17T09:51:03.709Z,100456.69
2022-08-17T09:53:15.373Z,100462.91
2022-08-17T09:56:18.741Z,100462.81
2022-08-17T09:59:09.937Z,100454.25
2022-08-17T10:01:45.345Z,100454.41
2022-08-17T10:04:37.531Z,100449.41
2022-08-17T10:07:17.399Z,100448.66
2022-08-17T10:10:00.586Z,100455.66
2022-08-17T10:12:49.843Z,100449.09
2022-08-17T10:15:29.145Z,100447.56
2022-08-17T10:18:39.980Z,100445.06
2022-08-17T10:21:31.824Z,100439.06
2022-08-17T10:24:25.939Z,100430.47
2022-08-17T10:26:57.643Z,100431.41
2022-08-17T10:29:47.345Z,100433.22
2022-08-17T10:32:26.252Z,100422.78
2022-08-17T10:35:09.431Z,100428.91
2022-08-17T10:37:50.491Z,100427.09
2022-08-17T10:40:39.114Z,100421.81
2022-08-17T10:43:29.188Z,100425.19
2022-08-17T10:46:31.592Z,100420.91
2022-08-17T10:49:26.174Z,100417.63
2022-08-17T10:51:59.945Z,100425.28
2022-08-17T10:54:49.067Z,100422.75
2022-08-17T10:57:40.466Z,100415.91
2022-08-17T11:00:14.948Z,100416.16
2022-08-17T11:02:53.694Z,100415.47
2022-08-17T11:05:54.111Z,100409.50
2022-08-17T11:08:52.158Z,100408.66
2022-08-17T11:11:39.937Z,100409.66
2022-08-17T11:14:41.756Z,100412.31
2022-08-17T11:17:49.785Z,100411.47
2022-08-17T11:21:23.624Z,100405.44
2022-08-17T11:24:32.962Z,100414.13
2022-08-17T11:27:12.133Z,100406.31
2022-08-17T11:30:01.545Z,100396.75
2022-08-17T11:32:38.152Z,100395.81
2022-08-17T11:35:47.276Z,100397.66
2022-08-17T11:38:25.297Z,100396.97
2022-08-17T11:41:20.132Z,100403.13
2022-08-17T11:44:15.340Z,100407.34
2022-08-17T11:47:15.839Z,100407.31
2022-08-17T11:50:40.488Z,100407.34
2022-08-17T11:53:29.241Z,100402.25
2022-08-17T11:56:06.048Z,100404.84
2022-08-17T11:58:38.365Z,100409.97
2022-08-17T12:01:13.677Z,100413.25
2022-08-17T12:03:54.342Z,100405.47
2022-08-17T12:06:56.959Z,100407.25
2022-08-17T12:09:31.276Z,100395.97
2022-08-17T12:12:13.900Z,100379.41
2022-08-17T12:17:40.389Z,100391.03
2022-08-17T12:20:29.274Z,100398.81
2022-08-17T12:23:10.343Z,100400.78
2022-08-17T12:25:44.074Z,100391.59
2022-08-17T12:28:23.850Z,100389.16
2022-08-17T12:30:53.656Z,100387.47
2022-08-17T12:33:28.900Z,100380.50
2022-08-17T12:36:27.636Z,100383.88
2022-08-17T12:39:13.048Z,100380.31
2022-08-17T12:41:44.996Z,100371.59
2022-08-17T12:44:24.134Z,100363.84
2022-08-17T12:47:00.762Z,100364.88
2022-08-17T12:49:35.468Z,100359.81
2022-08-17T12:52:19.857Z,100364.97
2022-08-17T12:55:03.037Z,100360.59
2022-08-17T12:57:43.638Z,100362.56
2022-08-17T13:00:41.321Z,100360.19
2022-08-17T13:03:19.349Z,100354.22
2022-08-17T13:06:06.890Z,100341.13
2022-08-17T13:08:40.278Z,100353.19
2022-08-17T13:11:10.473Z,100358.13
2022-08-17T13:13:41.227Z,100345.78
2022-08-17T13:16:17.872Z,100337.94
2022-08-17T13:18:51.402Z,100346.66
2022-08-17T13:21:30.564Z,100349.16
2022-08-17T13:24:05.917Z,100338.69
2022-08-17T13:26:38.003Z,100339.59
2022-08-17T13:29:08.396Z,100342.25
2022-08-17T13:31:52.206Z,100340.56
2022-08-17T13:35:12.030Z,100337.16
2022-08-17T13:37:33.535Z,100337.19
2022-08-17T13:40:21.652Z,100336.41
2022-08-17T13:42:59.793Z,100339.06
2022-08-17T13:46:13.556Z,100331.25
2022-08-17T13:48:44.930Z,100335.63
2022-08-17T13:51:35.822Z,100327.88
2022-08-17T13:54:24.569Z,100328.78
2022-08-17T13:57:07.548Z,100322.72
2022-08-17T13:59:54.867Z,100326.09
2022-08-17T14:02:29.139Z,100325.16
2022-08-17T14:04:57.416Z,100317.31
2022-08-17T14:07:33.658Z,100314.66
2022-08-17T14:10:17.295Z,100309.41
2022-08-17T14:12:46.589Z,100306.81
2022-08-17T14:15:17.438Z,100301.59
2022-08-17T14:17:45.673Z,100305.88
2022-08-17T14:20:14.572Z,100309.31
2022-08-17T14:22:46.210Z,100304.91
2022-08-17T14:25:17.569Z,100304.84
2022-08-17T14:27:52.591Z,100314.31
2022-08-17T14:30:25.107Z,100311.63
2022-08-17T14:32:53.997Z,100314.97
2022-08-17T14:35:24.444Z,100319.22
2022-08-17T14:37:53.347Z,100318.22
2022-08-17T14:40:24.678Z,100332.03
2022-08-17T14:42:56.013Z,100335.41
2022-08-17T14:45:30.155Z,100323.94
2022-08-17T14:48:02.716Z,100315.53
2022-08-17T14:50:30.955Z,100317.25
2022-08-17T14:53:01.332Z,100308.91
2022-08-17T14:55:29.771Z,100305.13
2022-08-17T14:57:59.345Z,100325.81
2022-08-17T15:00:28.501Z,100353.25
2022-08-17T15:02:58.687Z,100388.50
2022-08-17T15:05:30.557Z,100364.13
2022-08-17T15:07:58.864Z,100362.34
2022-08-17T15:10:27.802Z,100365.50
2022-08-17T15:12:56.135Z,100365.84
2022-08-17T15:15:25.505Z,100366.06
2022-08-17T15:17:55.866Z,100365.16
2022-08-17T15:20:28.612Z,100369.75
2022-08-17T15:22:58.761Z,100346.59
2022-08-17T15:25:28.727Z,100366.44
2022-08-17T15:27:56.900Z,100358.44
2022-08-17T15:30:27.147Z,100358.88
2022-08-17T15:32:55.818Z,100353.31
2022-08-17T15:35:29.383Z,100351.03
2022-08-17T15:38:06.256Z,100361.81
2022-08-17T15:40:36.963Z,100358.94
2022-08-17T15:43:11.821Z,100369.03
2022-08-17T15:45:41.514Z,100362.75
2022-08-17T15:48:10.036Z,100361.00
2022-08-17T15:50:38.058Z,100356.78
2022-08-17T15:53:05.982Z,100335.94
2022-08-17T15:55:34.400Z,100338.84
2022-08-17T15:58:02.501Z,100332.91
2022-08-17T16:00:31.147Z,100317.66
2022-08-17T16:03:45.260Z,100310.97
2022-08-17T16:05:55.112Z,100313.91
2022-08-17T16:08:23.095Z,100304.75
2022-08-17T16:10:51.148Z,100309.50
2022-08-17T16:13:20.370Z,100311.41
2022-08-17T16:15:57.100Z,100307.38
2022-08-17T16:18:30.994Z,100313.38
2022-08-17T16:21:19.456Z,100314.59
2022-08-17T16:23:47.657Z,100303.84
2022-08-17T16:26:15.994Z,100304.25
2022-08-17T16:28:43.878Z,100310.47
2022-08-17T16:31:12.258Z,100306.09
2022-08-17T16:33:42.362Z,100305.09
2022-08-17T16:36:31.147Z,100298.38
2022-08-17T16:38:59.379Z,100302.13
2022-08-17T16:41:45.514Z,100304.06
2022-08-17T16:44:15.796Z,100305.44
2022-08-17T16:46:45.424Z,100309.25
2022-08-17T16:49:36.009Z,100314.78
2022-08-17T16:52:06.050Z,100306.72
2022-08-17T16:54:35.392Z,100303.63
2022-08-17T16:57:05.008Z,100297.63
2022-08-17T16:59:40.749Z,100305.34
2022-08-17T17:02:11.296Z,100320.91
2022-08-17T17:04:50.492Z,100312.97
2022-08-17T17:07:34.758Z,100311.09
2022-08-17T17:10:06.668Z,100299.75
2022-08-17T17:13:03.013Z,100306.16
2022-08-17T17:15:28.228Z,100308.84
2022-08-17T17:18:06.134Z,100303.50
2022-08-17T17:20:43.781Z,100306.66
2022-08-17T17:23:33.204Z,100302.22
2022-08-17T17:26:11.697Z,100300.50
2022-08-17T17:28:50.788Z,100314.19
2022-08-17T17:31:23.745Z,100307.31
2022-08-17T17:33:57.375Z,100301.28
2022-08-17T17:36:30.971Z,100298.59
2022-08-17T17:39:01.340Z,100298.63
2022-08-17T17:41:34.455Z,100298.66
2022-08-17T17:44:08.054Z,100305.41
2022-08-17T17:46:41.323Z,100310.47
2022-08-17T17:49:14.107Z,100317.09
2022-08-17T17:52:07.745Z,100313.66
2022-08-17T17:54:49.752Z,100316.09
2022-08-17T17:57:27.234Z,100321.09
2022-08-17T18:00:08.061Z,100304.38
2022-08-17T18:02:51.751Z,100319.91
2022-08-17T18:05:40.560Z,100340.78
2022-08-17T18:08:19.983Z,100338.00
2022-08-17T18:11:08.783Z,100343.09
2022-08-17T18:13:54.160Z,100344.59
2022-08-17T18:16:22.952Z,100352.19
2022-08-17T18:18:52.769Z,100341.41
2022-08-17T18:21:23.608Z,100360.81
2022-08-17T18:24:08.342Z,100350.25
2022-08-17T18:26:45.066Z,100316.03
2022-08-17T18:29:22.504Z,100348.69
2022-08-17T18:32:10.627Z,100344.28
2022-08-17T18:34:48.019Z,100334.53
2022-08-17T18:37:32.900Z,100342.63
2022-08-17T18:40:26.142Z,100297.25
2022-08-17T18:43:03.618Z,100326.91
2022-08-17T18:45:35.623Z,100323.25
2022-08-17T18:48:04.218Z,100343.03
2022-08-17T18:50:42.402Z,100313.13
2022-08-17T18:53:42.012Z,100349.28
2022-08-17T18:56:30.672Z,100336.16
2022-08-17T18:59:14.244Z,100342.03
2022-08-17T19:01:53.486Z,100341.88
2022-08-17T19:04:38.070Z,100341.72
2022-08-17T19:07:10.705Z,100340.59
2022-08-17T19:09:43.609Z,100329.13
2022-08-17T19:12:27.657Z,100341.75
2022-08-17T19:14:57.005Z,100348.19
2022-08-17T19:17:30.236Z,100350.59
2022-08-17T19:20:03.677Z,100348.66
2022-08-17T19:22:43.792Z,100341.56
2022-08-17T19:25:16.224Z,100342.81
2022-08-17T19:27:57.231Z,100340.16
2022-08-17T19:30:29.128Z,100334.69
2022-08-17T19:32:58.370Z,100331.00
2022-08-17T19:35:35.464Z,100344.84
2022-08-17T19:38:12.891Z,100356.91
2022-08-17T19:40:54.030Z,100359.44
2022-08-17T19:43:31.862Z,100360.81
2022-08-17T19:46:08.635Z,100364.84
2022-08-17T19:48:48.303Z,100360.47
2022-08-17T19:51:24.801Z,100349.97
2022-08-17T19:54:09.506Z,100347.91
2022-08-17T19:56:47.470Z,100335.44
2022-08-17T19:59:35.956Z,100347.19
2022-08-17T20:02:17.899Z,100346.72
2022-08-17T20:05:03.972Z,100355.66
2022-08-17T20:07:43.512Z,100361.69
2022-08-17T20:10:19.580Z,100362.44
2022-08-17T20:12:54.375Z,100366.88
2022-08-17T20:15:30.613Z,100374.75
2022-08-17T20:18:01.449Z,100373.00
2022-08-17T20:20:36.074Z,100367.84
2022-08-17T20:23:11.594Z,100368.44
2022-08-17T20:25:46.878Z,100376.16
2022-08-17T20:28:28.139Z,100380.22
2022-08-17T20:34:36.809Z,100368.91
2022-08-17T20:37:38.345Z,100374.97
2022-08-17T20:40:31.737Z,100369.66
2022-08-17T20:43:00.673Z,100374.75
2022-08-17T20:45:54.898Z,100361.66
2022-08-17T20:48:37.961Z,100354.38
2022-08-17T20:51:27.206Z,100358.59
2022-08-17T20:54:28.567Z,100366.41
2022-08-17T20:57:00.388Z,100364.53
2022-08-17T21:00:14.425Z,100367.03
2022-08-17T21:02:44.689Z,100365.22
2022-08-17T21:05:34.467Z,100335.50
2022-08-17T21:08:14.311Z,100356.56
2022-08-17T21:10:45.609Z,100360.66
2022-08-17T21:14:09.090Z,100350.38
2022-08-17T21:16:54.765Z,100362.28
2022-08-17T21:19:49.008Z,100364.84
2022-08-17T21:22:38.701Z,100356.78
2022-08-17T21:25:19.928Z,100366.44
2022-08-17T21:27:58.595Z,100365.44
2022-08-17T21:30:47.680Z,100366.13
2022-08-17T21:33:25.418Z,100365.19
2022-08-17T21:36:16.229Z,100372.56
2022-08-17T21:38:58.435Z,100378.81
2022-08-17T21:41:31.034Z,100377.81
2022-08-17T21:44:05.257Z,100379.44
2022-08-17T21:46:38.526Z,100378.59
2022-08-17T21:49:13.579Z,100380.97
2022-08-17T21:51:46.720Z,100379.22
2022-08-17T21:54:28.913Z,100383.31
2022-08-17T21:56:57.105Z,100385.47
2022-08-17T21:59:28.993Z,100384.25
2022-08-17T22:01:58.645Z,100382.50
2022-08-17T22:04:29.487Z,100379.34
2022-08-17T22:07:00.183Z,100379.91
2022-08-17T22:09:33.430Z,100380.63
2022-08-17T22:12:05.721Z,100366.84
2022-08-17T22:14:52.486Z,100379.94
2022-08-17T22:17:25.366Z,100372.53
2022-08-17T22:19:56.337Z,100370.97
2022-08-17T22:22:58.010Z,100362.53
2022-08-17T22:25:29.514Z,100373.16
2022-08-17T22:27:59.937Z,100373.25
2022-08-17T22:30:32.362Z,100387.16
2022-08-17T22:33:02.007Z,100385.53
2022-08-17T22:35:43.516Z,100392.28
2022-08-17T22:38:38.476Z,100395.78
2022-08-17T22:41:42.231Z,100406.25
2022-08-17T22:44:27.362Z,100424.22
2022-08-17T22:47:01.805Z,100435.34
2022-08-17T22:49:33.478Z,100445.25
2022-08-17T22:52:08.881Z,100439.69
2022-08-17T22:54:54.542Z,100457.44
2022-08-17T22:57:51.697Z,100455.19
2022-08-17T23:00:34.175Z,100445.28
2022-08-17T23:03:10.360Z,100450.34
2022-08-17T23:05:39.530Z,100446.84
2022-08-17T23:08:15.586Z,100440.81
2022-08-17T23:10:45.328Z,100446.03
2022-08-17T23:13:16.057Z,100443.47
2022-08-17T23:15:44.559Z,100450.13
2022-08-17T23:18:12.791Z,100449.25
2022-08-17T23:20:43.554Z,100446.84
2022-08-17T23:23:14.100Z,100445.22
2022-08-17T23:25:44.522Z,100443.47
2022-08-17T23:28:14.217Z,100440.91
2022-08-17T23:30:46.610Z,100438.25
2022-08-17T23:33:21.265Z,100434.16
2022-08-17T23:35:51.507Z,100432.53
2022-08-17T23:38:19.640Z,100440.38
2022-08-17T23:40:47.688Z,100436.16
2022-08-17T23:43:24.825Z,100438.78
2022-08-17T23:45:55.420Z,100439.50
2022-08-17T23:48:35.268Z,100443.69
2022-08-17T23:51:08.507Z,100438.34
2022-08-17T23:53:42.363Z,100440.75
2022-08-17T23:56:11.820Z,100443.19
2022-08-17T23:58:44.771Z,100431.03
